createdAt,value
2023-02-09T00:01:51.618Z,37.98
2023-02-09T00:04:45.121Z,38.71
2023-02-09T00:07:28.925Z,38.62
2023-02-09T00:10:22.166Z,38.36
2023-02-09T00:13:21.982Z,38.22
2023-02-09T00:16:01.788Z,38.37
2023-02-09T00:18:37.672Z,38.19
2023-02-09T00:21:29.537Z,37.84
2023-02-09T00:24:02.508Z,37.59
2023-02-09T00:26:48.307Z,37.62
2023-02-09T00:29:24.474Z,37.61
2023-02-09T00:32:17.416Z,37.69
2023-02-09T00:35:11.261Z,37.68
2023-02-09T00:37:53.802Z,37.54
2023-02-09T00:40:49.681Z,37.40
2023-02-09T00:43:43.507Z,37.38
2023-02-09T00:46:19.874Z,37.22
2023-02-09T00:48:56.686Z,36.76
2023-02-09T00:51:39.383Z,36.41
2023-02-09T00:54:16.988Z,35.98
2023-02-09T00:57:09.754Z,36.00
2023-02-09T01:00:02.553Z,36.17
2023-02-09T01:02:45.177Z,35.99
2023-02-09T01:05:30.753Z,36.38
2023-02-09T01:08:16.980Z,36.71
2023-02-09T01:10:50.669Z,37.30
2023-02-09T01:13:43.935Z,38.06
2023-02-09T01:16:28.837Z,38.71
2023-02-09T01:19:21.752Z,39.38
2023-02-09T01:21:54.442Z,39.41
2023-02-09T01:24:29.992Z,39.08
2023-02-09T01:27:02.706Z,38.75
2023-02-09T01:29:37.348Z,38.94
2023-02-09T01:32:13.142Z,38.97
2023-02-09T01:34:46.008Z,38.58
2023-02-09T01:37:21.982Z,38.19
2023-02-09T01:39:57.822Z,37.94
2023-02-09T01:42:30.738Z,38.21
2023-02-09T01:45:21.510Z,38.57
2023-02-09T01:48:03.570Z,38.91
2023-02-09T01:50:50.580Z,39.08
2023-02-09T01:53:23.576Z,38.66
2023-02-09T01:56:03.754Z,38.54
2023-02-09T01:58:40.639Z,38.42
2023-02-09T02:01:13.988Z,38.15
2023-02-09T02:03:47.255Z,37.90
2023-02-09T02:06:20.956Z,37.48
2023-02-09T02:09:01.006Z,37.09
2023-02-09T02:11:34.779Z,36.91
2023-02-09T02:14:27.367Z,36.78
2023-02-09T02:17:16.127Z,36.60
2023-02-09T02:20:33.251Z,36.44
2023-02-09T02:23:21.893Z,36.43
2023-02-09T02:26:35.015Z,36.23
2023-02-09T02:29:36.235Z,36.54
2023-02-09T02:32:21.860Z,36.57
2023-02-09T02:35:05.207Z,36.84
2023-02-09T02:37:54.926Z,37.13
2023-02-09T02:40:37.033Z,37.30
2023-02-09T02:43:24.560Z,37.36
2023-02-09T02:46:04.305Z,37.33
2023-02-09T02:48:42.947Z,37.33
2023-02-09T02:51:24.826Z,37.66
2023-02-09T02:54:05.028Z,38.05
2023-02-09T02:56:43.101Z,38.15
2023-02-09T02:59:32.274Z,37.82
2023-02-09T03:02:06.465Z,37.62
2023-02-09T03:04:42.051Z,38.18
2023-02-09T03:07:14.647Z,38.90
2023-02-09T03:09:55.329Z,38.97
2023-02-09T03:12:40.115Z,39.01
2023-02-09T03:15:22.068Z,38.90
2023-02-09T03:18:03.135Z,38.57
2023-02-09T03:20:56.191Z,38.42
2023-02-09T03:23:39.519Z,38.40
2023-02-09T03:26:15.415Z,38.50
2023-02-09T03:28:57.820Z,38.77
2023-02-09T03:31:34.504Z,38.82
2023-02-09T03:34:10.796Z,38.68
2023-02-09T03:36:51.904Z,39.00
2023-02-09T03:39:22.930Z,39.46
2023-02-09T03:41:55.489Z,39.77
2023-02-09T03:44:30.859Z,39.54
2023-02-09T03:47:07.737Z,39.73
2023-02-09T03:49:45.611Z,39.87
2023-02-09T03:52:19.411Z,40.17
2023-02-09T03:54:52.955Z,40.34
2023-02-09T03:57:28.199Z,39.97
2023-02-09T04:00:01.977Z,39.58
2023-02-09T04:02:44.445Z,39.70
2023-02-09T04:05:22.994Z,39.70
2023-02-09T04:08:00.666Z,39.77
2023-02-09T04:10:33.546Z,39.56
2023-02-09T04:13:09.205Z,39.39
2023-02-09T04:15:42.907Z,39.56
2023-02-09T04:18:15.563Z,39.55
2023-02-09T04:20:48.393Z,39.70
2023-02-09T04:23:21.690Z,39.72
2023-02-09T04:25:54.450Z,39.50
2023-02-09T04:28:27.056Z,39.52
2023-02-09T04:31:00.124Z,39.48
2023-02-09T04:33:35.801Z,39.61
2023-02-09T04:36:10.689Z,40.15
2023-02-09T04:38:43.573Z,40.47
2023-02-09T04:41:16.291Z,40.16
2023-02-09T04:43:51.972Z,40.39
2023-02-09T04:46:25.508Z,40.16
2023-02-09T04:48:58.352Z,39.89
2023-02-09T04:51:30.901Z,39.87
2023-02-09T04:54:06.875Z,39.62
2023-02-09T04:56:39.707Z,39.19
2023-02-09T04:59:36.068Z,39.16
2023-02-09T05:02:18.799Z,38.94
2023-02-09T05:04:53.813Z,38.59
2023-02-09T05:07:30.630Z,38.25
2023-02-09T05:10:13.754Z,38.67
2023-02-09T05:12:46.473Z,39.38
2023-02-09T05:15:22.387Z,40.31
2023-02-09T05:18:07.177Z,41.17
2023-02-09T05:20:40.341Z,41.76
2023-02-09T05:23:13.705Z,41.97
2023-02-09T05:25:48.008Z,41.74
2023-02-09T05:28:22.954Z,41.49
2023-02-09T05:30:56.174Z,41.55
2023-02-09T05:33:31.166Z,41.66
2023-02-09T05:36:09.920Z,41.63
2023-02-09T05:38:43.065Z,41.70
2023-02-09T05:41:33.642Z,41.68
2023-02-09T05:44:09.537Z,41.89
2023-02-09T05:46:42.434Z,42.01
2023-02-09T05:49:15.319Z,41.98
2023-02-09T05:51:48.110Z,42.12
2023-02-09T05:54:23.273Z,42.28
2023-02-09T05:56:56.160Z,42.37
2023-02-09T05:59:29.066Z,42.54
2023-02-09T06:02:02.664Z,42.64
2023-02-09T06:04:38.966Z,42.64
2023-02-09T06:07:12.156Z,42.65
2023-02-09T06:09:48.250Z,42.64
2023-02-09T06:12:21.830Z,42.54
2023-02-09T06:14:54.668Z,42.66
2023-02-09T06:17:27.453Z,42.36
2023-02-09T06:20:00.174Z,42.00
2023-02-09T06:22:45.888Z,41.89
2023-02-09T06:25:18.763Z,41.78
2023-02-09T06:27:51.673Z,41.34
2023-02-09T06:30:24.822Z,41.11
2023-02-09T06:32:57.682Z,40.89
2023-02-09T06:35:30.477Z,40.37
2023-02-09T06:38:06.220Z,39.83
2023-02-09T06:40:39.202Z,39.99
2023-02-09T06:43:11.963Z,39.80
2023-02-09T06:45:45.899Z,39.65
2023-02-09T06:48:21.214Z,39.46
2023-02-09T06:50:54.362Z,39.53
2023-02-09T06:53:27.258Z,39.70
2023-02-09T06:56:06.351Z,39.40
2023-02-09T06:58:42.901Z,39.46
2023-02-09T07:01:17.117Z,39.83
2023-02-09T07:03:52.655Z,39.56
2023-02-09T07:06:25.547Z,38.95
2023-02-09T07:09:09.410Z,39.00
2023-02-09T07:11:42.210Z,38.96
2023-02-09T07:14:26.409Z,39.00
2023-02-09T07:17:04.098Z,39.01
2023-02-09T07:19:47.078Z,39.53
2023-02-09T07:22:31.023Z,39.78
2023-02-09T07:25:13.830Z,40.27
2023-02-09T07:27:49.795Z,41.48
2023-02-09T07:30:22.745Z,42.12
2023-02-09T07:32:58.373Z,41.99
2023-02-09T07:35:32.649Z,41.75
2023-02-09T07:38:05.974Z,41.40
2023-02-09T07:40:39.942Z,40.96
2023-02-09T07:43:23.035Z,40.56
2023-02-09T07:46:05.338Z,40.24
2023-02-09T07:48:38.545Z,40.06
2023-02-09T07:51:16.088Z,39.56
2023-02-09T07:53:49.136Z,37.00
2023-02-09T07:56:22.244Z,35.96
2023-02-09T07:58:57.494Z,37.01
2023-02-09T08:01:34.091Z,38.15
2023-02-09T08:04:07.230Z,39.55
2023-02-09T08:06:43.340Z,41.30
2023-02-09T08:09:18.676Z,42.17
2023-02-09T08:11:57.765Z,43.29
2023-02-09T08:14:39.957Z,45.33
2023-02-09T08:17:26.000Z,45.45
2023-02-09T08:20:03.598Z,47.08
2023-02-09T08:22:45.334Z,49.15
2023-02-09T08:25:20.993Z,50.87
2023-02-09T08:28:04.521Z,50.43
2023-02-09T08:30:38.158Z,51.46
2023-02-09T08:33:10.746Z,52.90
2023-02-09T08:35:44.292Z,53.88
2023-02-09T08:38:17.426Z,54.68
2023-02-09T08:40:50.295Z,55.33
2023-02-09T08:43:22.969Z,56.97
2023-02-09T08:45:55.820Z,57.00
2023-02-09T08:48:31.072Z,57.11
2023-02-09T08:51:03.755Z,57.61
2023-02-09T08:53:36.934Z,58.69
2023-02-09T08:56:10.222Z,58.92
2023-02-09T08:58:43.160Z,59.87
2023-02-09T09:01:16.301Z,59.93
2023-02-09T09:03:49.610Z,59.71
2023-02-09T09:06:23.218Z,59.07
2023-02-09T09:08:56.412Z,58.76
2023-02-09T09:11:29.827Z,57.56
2023-02-09T09:14:03.899Z,57.35
2023-02-09T09:16:37.055Z,57.84
2023-02-09T09:19:10.170Z,58.41
2023-02-09T09:21:43.160Z,56.82
2023-02-09T09:24:16.342Z,56.60
2023-02-09T09:26:51.389Z,56.41
2023-02-09T09:29:25.525Z,56.28
2023-02-09T09:31:58.341Z,56.15
2023-02-09T09:34:34.636Z,55.51
2023-02-09T09:37:07.568Z,55.38
2023-02-09T09:39:44.546Z,55.31
2023-02-09T09:42:28.834Z,55.19
2023-02-09T09:45:07.393Z,55.57
2023-02-09T09:47:44.676Z,54.87
2023-02-09T09:50:20.021Z,54.46
2023-02-09T09:53:09.972Z,54.25
2023-02-09T09:55:42.789Z,54.08
2023-02-09T09:58:21.364Z,54.44
2023-02-09T10:01:04.512Z,54.60
2023-02-09T10:03:58.551Z,54.33
2023-02-09T10:07:03.772Z,54.11
2023-02-09T10:09:45.719Z,53.21
2023-02-09T10:12:30.184Z,53.16
2023-02-09T10:15:29.526Z,52.74
2023-02-09T10:18:04.663Z,52.66
2023-02-09T10:20:49.483Z,53.87
2023-02-09T10:23:28.806Z,53.75
2023-02-09T10:26:25.150Z,53.01
2023-02-09T10:29:00.187Z,53.88
2023-02-09T10:31:39.970Z,53.00
2023-02-09T10:34:20.636Z,52.20
2023-02-09T10:36:55.803Z,53.09
2023-02-09T10:39:56.959Z,53.84
2023-02-09T10:42:33.076Z,53.37
2023-02-09T10:45:15.836Z,53.10
2023-02-09T10:48:21.561Z,51.32
2023-02-09T10:50:57.763Z,52.00
2023-02-09T10:53:32.950Z,52.65
2023-02-09T10:56:15.813Z,53.03
2023-02-09T10:58:56.667Z,53.70
2023-02-09T11:01:32.290Z,52.72
2023-02-09T11:04:19.453Z,52.21
2023-02-09T11:06:56.587Z,50.79
2023-02-09T11:09:33.251Z,50.98
2023-02-09T11:12:11.254Z,50.39
2023-02-09T11:14:45.103Z,51.14
2023-02-09T11:17:26.589Z,51.97
2023-02-09T11:20:15.120Z,51.31
2023-02-09T11:23:02.065Z,51.93
2023-02-09T11:25:39.270Z,52.48
2023-02-09T11:28:34.862Z,50.89
2023-02-09T11:31:38.108Z,51.35
2023-02-09T11:34:24.239Z,51.44
2023-02-09T11:37:08.461Z,51.36
2023-02-09T11:39:50.065Z,50.17
2023-02-09T11:42:46.857Z,51.25
2023-02-09T11:45:36.631Z,50.46
2023-02-09T11:48:19.295Z,50.93
2023-02-09T11:51:06.730Z,50.90
2023-02-09T11:53:49.792Z,50.13
2023-02-09T11:56:25.099Z,50.09
2023-02-09T11:59:26.448Z,51.00
2023-02-09T12:02:09.716Z,50.12
2023-02-09T12:04:53.447Z,49.54
2023-02-09T12:07:35.852Z,48.82
2023-02-09T12:10:25.465Z,49.93
2023-02-09T12:13:04.235Z,50.30
2023-02-09T12:15:44.721Z,50.75
2023-02-09T12:18:22.419Z,49.23
2023-02-09T12:20:58.878Z,50.28
2023-02-09T12:23:35.519Z,49.51
2023-02-09T12:26:37.123Z,49.76
2023-02-09T12:29:39.178Z,50.02
2023-02-09T12:32:30.904Z,49.80
2023-02-09T12:35:29.046Z,48.71
2023-02-09T12:38:18.331Z,49.24
2023-02-09T12:41:06.249Z,48.81
2023-02-09T12:43:41.888Z,48.21
2023-02-09T12:46:21.876Z,48.33
2023-02-09T12:49:04.343Z,48.56
2023-02-09T12:51:54.070Z,48.49
2023-02-09T12:54:36.156Z,48.26
2023-02-09T12:57:47.461Z,48.77
2023-02-09T13:00:49.964Z,49.10
2023-02-09T13:03:35.282Z,48.96
2023-02-09T13:06:28.532Z,48.67
2023-02-09T13:09:05.038Z,47.95
2023-02-09T13:11:51.627Z,48.43
2023-02-09T13:14:25.811Z,48.59
2023-02-09T13:17:28.271Z,48.97
2023-02-09T13:20:27.524Z,48.69
2023-02-09T13:23:21.183Z,48.45
2023-02-09T13:26:02.332Z,48.59
2023-02-09T13:28:35.044Z,48.33
2023-02-09T13:31:27.556Z,47.97
2023-02-09T13:34:05.562Z,48.47
2023-02-09T13:36:49.356Z,48.39
2023-02-09T13:39:27.202Z,48.18
2023-02-09T13:42:00.235Z,47.94
2023-02-09T13:44:35.141Z,48.56
2023-02-09T13:47:15.750Z,47.81
2023-02-09T13:50:01.869Z,47.56
2023-02-09T13:52:39.259Z,47.61
2023-02-09T13:55:21.946Z,47.25
2023-02-09T13:58:00.464Z,47.47
2023-02-09T14:00:39.872Z,47.86
2023-02-09T14:03:19.908Z,47.52
2023-02-09T14:05:59.011Z,47.94
2023-02-09T14:08:35.811Z,47.71
2023-02-09T14:11:18.959Z,47.57
2023-02-09T14:13:58.222Z,47.39
2023-02-09T14:16:32.002Z,47.53
2023-02-09T14:19:19.492Z,47.97
2023-02-09T14:21:52.828Z,48.50
2023-02-09T14:24:28.858Z,48.40
2023-02-09T14:27:24.644Z,47.90
2023-02-09T14:29:58.023Z,47.84
2023-02-09T14:32:36.736Z,47.90
2023-02-09T14:35:24.960Z,48.78
2023-02-09T14:37:56.802Z,48.23
2023-02-09T14:40:37.464Z,48.71
2023-02-09T14:43:25.658Z,48.29
2023-02-09T14:46:02.924Z,48.23
2023-02-09T14:48:38.949Z,48.94
2023-02-09T14:51:17.564Z,48.88
2023-02-09T14:53:50.556Z,48.99
2023-02-09T14:56:29.071Z,49.21
2023-02-09T14:59:07.054Z,49.11
2023-02-09T15:01:39.813Z,49.26
2023-02-09T15:04:12.766Z,50.21
2023-02-09T15:06:48.481Z,49.81
2023-02-09T15:09:28.525Z,49.98
2023-02-09T15:12:06.346Z,50.28
2023-02-09T15:14:45.565Z,50.48
2023-02-09T15:17:23.702Z,50.82
2023-02-09T15:20:00.673Z,51.27
2023-02-09T15:22:33.656Z,51.54
2023-02-09T15:25:06.826Z,52.12
2023-02-09T15:27:42.999Z,52.34
2023-02-09T15:30:22.481Z,52.69
2023-02-09T15:32:55.686Z,53.01
2023-02-09T15:35:38.651Z,53.24
2023-02-09T15:38:14.989Z,53.76
2023-02-09T15:41:09.345Z,54.07
2023-02-09T15:44:09.950Z,54.23
2023-02-09T15:47:03.207Z,54.58
2023-02-09T15:49:40.726Z,54.94
2023-02-09T15:52:24.237Z,55.43
2023-02-09T15:54:59.808Z,55.81
2023-02-09T15:57:38.382Z,56.16
2023-02-09T16:00:26.016Z,56.28
2023-02-09T16:03:20.337Z,56.47
2023-02-09T16:06:00.265Z,56.90
2023-02-09T16:08:37.749Z,57.26
2023-02-09T16:11:18.166Z,57.52
2023-02-09T16:14:03.597Z,57.63
2023-02-09T16:16:40.659Z,58.00
2023-02-09T16:19:13.782Z,58.43
2023-02-09T16:21:59.880Z,58.50
2023-02-09T16:24:46.328Z,58.53
2023-02-09T16:27:28.071Z,58.75
2023-02-09T16:30:19.357Z,58.68
2023-02-09T16:32:55.192Z,58.61
2023-02-09T16:35:51.066Z,58.56
2023-02-09T16:38:44.467Z,58.62
2023-02-09T16:41:45.438Z,58.80
2023-02-09T16:44:33.702Z,58.77
2023-02-09T16:47:22.673Z,58.98
2023-02-09T16:50:28.118Z,59.10
2023-02-09T16:53:33.976Z,59.39
2023-02-09T16:56:15.555Z,59.67
2023-02-09T16:58:49.064Z,60.02
2023-02-09T17:01:41.890Z,60.26
2023-02-09T17:04:19.296Z,60.81
2023-02-09T17:07:15.271Z,60.85
2023-02-09T17:09:51.545Z,61.35
2023-02-09T17:12:44.484Z,61.47
2023-02-09T17:15:29.560Z,64.35
2023-02-09T17:18:26.396Z,70.43
2023-02-09T17:21:24.532Z,68.16
2023-02-09T17:24:15.862Z,64.02
2023-02-09T17:26:58.792Z,58.02
2023-02-09T17:29:52.753Z,53.70
2023-02-09T17:32:47.611Z,52.75
2023-02-09T17:36:17.820Z,52.59
2023-02-09T17:38:44.834Z,53.03
2023-02-09T17:41:33.768Z,53.93
2023-02-09T17:44:43.729Z,54.60
2023-02-09T17:47:39.684Z,53.41
2023-02-09T17:50:13.012Z,55.34
2023-02-09T17:53:27.257Z,56.18
2023-02-09T17:56:11.895Z,56.78
2023-02-09T17:59:25.217Z,57.56
2023-02-09T18:02:16.943Z,58.65
2023-02-09T18:05:15.328Z,59.11
2023-02-09T18:08:08.346Z,59.72
2023-02-09T18:11:01.473Z,60.38
2023-02-09T18:13:54.294Z,60.94
2023-02-09T18:16:48.221Z,64.56
2023-02-09T18:19:41.540Z,69.11
2023-02-09T18:22:34.690Z,67.13
2023-02-09T18:25:29.657Z,63.63
2023-02-09T18:28:22.546Z,60.63
2023-02-09T18:31:08.404Z,55.75
2023-02-09T18:34:01.164Z,52.44
2023-02-09T18:36:53.673Z,51.90
2023-02-09T18:39:47.891Z,52.40
2023-02-09T18:42:30.482Z,53.25
2023-02-09T18:45:16.916Z,54.23
2023-02-09T18:48:02.798Z,54.99
2023-02-09T18:50:56.002Z,55.77
2023-02-09T18:53:50.214Z,56.75
2023-02-09T18:56:43.732Z,57.57
2023-02-09T18:59:36.998Z,58.19
2023-02-09T19:02:31.512Z,58.78
2023-02-09T19:05:26.207Z,59.11
2023-02-09T19:08:19.936Z,59.61
2023-02-09T19:11:06.413Z,60.12
2023-02-09T19:14:15.050Z,60.31
2023-02-09T19:16:47.725Z,60.66
2023-02-09T19:19:42.468Z,60.75
2023-02-09T19:22:35.782Z,60.85
2023-02-09T19:25:32.457Z,61.18
2023-02-09T19:28:25.275Z,61.39
2023-02-09T19:31:19.147Z,61.43
2023-02-09T19:34:12.189Z,61.47
2023-02-09T19:36:57.660Z,63.62
2023-02-09T19:40:00.459Z,68.23
2023-02-09T19:42:34.237Z,66.52
2023-02-09T19:45:27.154Z,63.96
2023-02-09T19:48:15.449Z,60.70
2023-02-09T19:51:09.488Z,55.65
2023-02-09T19:53:45.413Z,52.44
2023-02-09T19:56:41.294Z,51.64
2023-02-09T19:59:24.042Z,52.14
2023-02-09T20:02:05.304Z,52.81
2023-02-09T20:04:57.127Z,53.60
2023-02-09T20:07:50.064Z,54.19
2023-02-09T20:10:24.020Z,55.37
2023-02-09T20:12:59.993Z,56.04
2023-02-09T20:15:53.589Z,56.42
2023-02-09T20:18:48.835Z,57.24
2023-02-09T20:21:42.963Z,57.68
2023-02-09T20:24:36.260Z,58.03
2023-02-09T20:27:19.272Z,58.67
2023-02-09T20:30:09.058Z,59.15
2023-02-09T20:32:44.651Z,59.63
2023-02-09T20:35:41.856Z,60.03
2023-02-09T20:38:16.356Z,60.34
2023-02-09T20:41:12.956Z,60.49
2023-02-09T20:44:05.968Z,60.89
2023-02-09T20:46:58.963Z,60.90
2023-02-09T20:49:52.980Z,61.14
2023-02-09T20:52:46.350Z,61.45
2023-02-09T20:55:40.328Z,64.42
2023-02-09T20:58:33.294Z,69.26
2023-02-09T21:01:26.993Z,66.72
2023-02-09T21:04:20.312Z,63.55
2023-02-09T21:07:14.142Z,58.29
2023-02-09T21:10:07.200Z,54.40
2023-02-09T21:12:51.069Z,53.39
2023-02-09T21:15:45.101Z,53.36
2023-02-09T21:18:38.501Z,54.18
2023-02-09T21:21:32.085Z,54.97
2023-02-09T21:24:24.844Z,55.99
2023-02-09T21:27:17.657Z,56.88
2023-02-09T21:30:10.529Z,57.64
2023-02-09T21:33:03.420Z,58.36
2023-02-09T21:35:56.493Z,58.70
2023-02-09T21:38:49.312Z,59.52
2023-02-09T21:41:59.471Z,59.91
2023-02-09T21:44:52.331Z,60.08
2023-02-09T21:47:46.503Z,60.56
2023-02-09T21:50:39.784Z,60.91
2023-02-09T21:53:33.160Z,61.36
2023-02-09T21:56:26.183Z,64.75
2023-02-09T21:59:11.901Z,69.18
2023-02-09T22:02:05.513Z,66.94
2023-02-09T22:04:58.498Z,64.00
2023-02-09T22:07:51.714Z,60.24
2023-02-09T22:10:44.654Z,54.89
2023-02-09T22:13:37.724Z,51.76
2023-02-09T22:16:30.820Z,51.34
2023-02-09T22:19:24.060Z,51.95
2023-02-09T22:22:16.794Z,52.95
2023-02-09T22:25:09.549Z,53.95
2023-02-09T22:28:01.228Z,54.84
2023-02-09T22:30:54.191Z,55.75
2023-02-09T22:33:47.327Z,56.70
2023-02-09T22:36:40.998Z,57.65
2023-02-09T22:39:33.895Z,58.58
2023-02-09T22:42:20.407Z,59.29
2023-02-09T22:45:14.043Z,59.81
2023-02-09T22:47:59.936Z,60.45
2023-02-09T22:50:52.689Z,60.70
2023-02-09T22:53:38.178Z,60.97
2023-02-09T22:56:31.517Z,61.33
2023-02-09T22:59:24.363Z,64.92
2023-02-09T23:02:17.170Z,69.71
2023-02-09T23:05:10.593Z,66.67
2023-02-09T23:08:03.498Z,62.58
2023-02-09T23:11:02.531Z,57.53
2023-02-09T23:14:09.673Z,53.64
2023-02-09T23:17:04.367Z,52.71
2023-02-09T23:19:57.147Z,53.37
2023-02-09T23:22:50.071Z,54.24
2023-02-09T23:25:44.248Z,54.99
2023-02-09T23:28:29.911Z,56.09
2023-02-09T23:31:23.288Z,56.76
2023-02-09T23:34:19.650Z,57.62
2023-02-09T23:37:19.057Z,58.68
2023-02-09T23:40:28.033Z,59.10
2023-02-09T23:43:20.798Z,59.85
2023-02-09T23:46:16.015Z,59.95
2023-02-09T23:49:08.797Z,60.31
2023-02-09T23:52:01.529Z,60.78
2023-02-09T23:54:54.300Z,60.91
2023-02-09T23:57:40.766Z,61.05
